createdAt,value
2022-08-04T00:04:03.682Z,3.05
2022-08-04T00:08:44.448Z,3.22
2022-08-04T00:12:48.370Z,3.50
2022-08-04T00:16:49.630Z,2.90
2022-08-04T00:20:46.751Z,3.28
2022-08-04T00:24:45.370Z,3.05
2022-08-04T00:28:43.583Z,2.97
2022-08-04T00:32:44.201Z,3.00
2022-08-04T00:36:44.959Z,3.08
2022-08-04T00:40:48.171Z,3.28
2022-08-04T00:45:20.266Z,3.25
2022-08-04T00:50:03.583Z,3.00
2022-08-04T00:54:17.757Z,3.10
2022-08-04T00:58:44.343Z,3.15
2022-08-04T01:03:09.545Z,3.25
2022-08-04T01:07:32.050Z,3.17
2022-08-04T01:11:58.064Z,3.15
2022-08-04T01:16:07.557Z,3.00
2022-08-04T01:20:11.968Z,3.22
2022-08-04T01:24:46.844Z,3.53
2022-08-04T01:29:09.735Z,3.10
2022-08-04T01:33:14.345Z,3.00
2022-08-04T01:37:44.957Z,3.03
2022-08-04T01:41:42.052Z,2.92
2022-08-04T01:46:01.448Z,3.50
2022-08-04T01:50:11.685Z,2.88
2022-08-04T01:54:11.692Z,3.20
2022-08-04T01:58:11.245Z,3.30
2022-08-04T02:02:08.525Z,2.97
2022-08-04T02:06:49.289Z,3.55
2022-08-04T02:11:13.911Z,3.63
2022-08-04T02:15:42.183Z,3.45
2022-08-04T02:20:07.447Z,3.67
2022-08-04T02:24:12.565Z,3.75
2022-08-04T02:28:15.740Z,3.42
2022-08-04T02:32:27.638Z,3.35
2022-08-04T02:36:35.132Z,3.55
2022-08-04T02:40:32.963Z,3.70
2022-08-04T02:44:32.324Z,3.70
2022-08-04T02:48:34.680Z,3.75
2022-08-04T02:52:33.097Z,3.90
2022-08-04T02:56:32.456Z,3.65
2022-08-04T03:00:30.398Z,3.92
2022-08-04T03:05:02.797Z,3.70
2022-08-04T03:09:35.266Z,3.83
2022-08-04T03:14:17.785Z,3.65
2022-08-04T03:18:55.791Z,3.90
2022-08-04T03:23:22.637Z,3.60
2022-08-04T03:28:08.983Z,3.65
2022-08-04T03:32:23.726Z,4.13
2022-08-04T03:37:17.128Z,3.95
2022-08-04T03:42:04.140Z,3.97
2022-08-04T03:46:51.660Z,3.50
2022-08-04T03:51:37.763Z,3.70
2022-08-04T03:56:18.240Z,3.58
2022-08-04T04:00:29.926Z,3.58
2022-08-04T04:04:42.245Z,3.42
2022-08-04T04:09:16.033Z,3.55
2022-08-04T04:13:49.628Z,3.63
2022-08-04T04:18:21.947Z,3.83
2022-08-04T04:22:44.201Z,3.63
2022-08-04T04:27:02.872Z,3.80
2022-08-04T04:31:38.153Z,3.92
2022-08-04T04:35:41.465Z,4.38
2022-08-04T04:40:21.825Z,3.90
2022-08-04T04:44:46.980Z,3.83
2022-08-04T04:49:32.131Z,3.80
2022-08-04T04:53:45.196Z,4.20
2022-08-04T04:57:53.061Z,4.10
2022-08-04T05:02:35.817Z,4.50
2022-08-04T05:06:54.818Z,4.13
2022-08-04T05:11:38.753Z,4.00
2022-08-04T05:15:42.958Z,4.35
2022-08-04T05:19:59.239Z,4.25
2022-08-04T05:24:08.117Z,4.43
2022-08-04T05:28:23.132Z,4.53
2022-08-04T05:32:29.448Z,4.20
2022-08-04T05:37:03.311Z,4.03
2022-08-04T05:41:03.001Z,4.50
2022-08-04T05:45:00.740Z,4.63
2022-08-04T05:48:57.962Z,4.75
2022-08-04T05:52:59.906Z,5.05
2022-08-04T05:56:59.427Z,5.10
2022-08-04T06:00:58.352Z,5.60
2022-08-04T06:04:56.620Z,5.82
2022-08-04T06:08:56.885Z,6.30
2022-08-04T06:12:58.343Z,5.20
2022-08-04T06:16:57.825Z,5.00
2022-08-04T06:20:58.657Z,4.70
2022-08-04T06:24:59.327Z,4.68
2022-08-04T06:28:58.630Z,4.95
2022-08-04T06:33:03.667Z,4.53
2022-08-04T06:37:03.485Z,4.43
2022-08-04T06:41:03.883Z,4.95
2022-08-04T06:45:03.008Z,4.53
2022-08-04T06:49:00.948Z,4.95
2022-08-04T06:52:57.997Z,5.20
2022-08-04T06:56:59.117Z,5.78
2022-08-04T07:01:03.127Z,4.68
2022-08-04T07:05:04.535Z,5.93
2022-08-04T07:09:06.536Z,6.20
2022-08-04T07:13:07.767Z,5.32
2022-08-04T07:17:08.037Z,5.15
2022-08-04T07:21:05.253Z,4.70
2022-08-04T07:25:02.382Z,5.30
2022-08-04T07:29:02.105Z,5.13
2022-08-04T07:32:59.296Z,4.55
2022-08-04T07:36:59.697Z,4.10
2022-08-04T07:40:57.857Z,3.30
2022-08-04T07:44:54.879Z,3.33
2022-08-04T07:48:52.567Z,3.13
2022-08-04T07:53:09.021Z,3.20
2022-08-04T07:57:06.968Z,3.30
2022-08-04T08:01:04.276Z,2.60
2022-08-04T08:05:02.043Z,2.70
2022-08-04T08:09:01.962Z,3.20
2022-08-04T08:13:09.852Z,3.40
2022-08-04T08:17:07.284Z,3.85
2022-08-04T08:21:05.033Z,3.53
2022-08-04T08:25:02.234Z,3.72
2022-08-04T08:28:59.373Z,3.42
2022-08-04T08:32:56.677Z,3.40
2022-08-04T08:37:13.623Z,3.40
2022-08-04T08:41:16.423Z,3.50
2022-08-04T08:45:54.142Z,3.40
2022-08-04T08:50:36.154Z,3.20
2022-08-04T08:55:07.121Z,3.20
2022-08-04T08:59:58.757Z,3.25
2022-08-04T09:04:33.092Z,2.40
2022-08-04T09:09:06.713Z,2.50
2022-08-04T09:13:16.574Z,2.65
2022-08-04T09:17:43.162Z,2.42
2022-08-04T09:21:53.591Z,2.60
2022-08-04T09:26:06.423Z,3.00
2022-08-04T09:30:12.535Z,2.50
2022-08-04T09:34:20.437Z,2.50
2022-08-04T09:38:51.748Z,2.60
2022-08-04T09:43:17.271Z,2.80
2022-08-04T09:47:43.934Z,2.55
2022-08-04T09:52:07.821Z,2.50
2022-08-04T09:56:41.668Z,2.80
2022-08-04T10:00:50.034Z,2.75
2022-08-04T10:04:50.952Z,2.70
2022-08-04T10:09:28.592Z,2.60
2022-08-04T10:13:56.315Z,2.40
2022-08-04T10:18:35.157Z,2.55
2022-08-04T10:23:09.423Z,2.70
2022-08-04T10:27:17.302Z,2.60
2022-08-04T10:31:24.692Z,2.63
2022-08-04T10:35:26.861Z,2.50
2022-08-04T10:40:07.277Z,2.35
2022-08-04T10:44:24.644Z,2.30
2022-08-04T10:48:45.818Z,2.30
2022-08-04T10:52:55.273Z,2.40
2022-08-04T10:57:10.893Z,2.20
2022-08-04T11:02:02.894Z,2.30
2022-08-04T11:05:56.996Z,2.13
2022-08-04T11:09:54.035Z,2.22
2022-08-04T11:14:24.383Z,2.15
2022-08-04T11:19:05.816Z,2.25
2022-08-04T11:23:13.312Z,2.10
2022-08-04T11:27:24.349Z,2.13
2022-08-04T11:31:35.495Z,2.30
2022-08-04T11:35:47.130Z,2.38
2022-08-04T11:39:50.738Z,2.42
2022-08-04T11:44:01.704Z,2.22
2022-08-04T11:48:17.388Z,2.40
2022-08-04T11:52:19.612Z,2.28
2022-08-04T11:56:36.867Z,2.22
2022-08-04T12:00:46.048Z,2.40
2022-08-04T12:04:57.786Z,2.10
2022-08-04T12:09:11.804Z,2.20
2022-08-04T12:13:49.289Z,2.08
2022-08-04T12:18:02.649Z,2.20
2022-08-04T12:22:08.824Z,2.25
2022-08-04T12:26:15.778Z,2.28
2022-08-04T12:31:01.258Z,2.47
2022-08-04T12:34:57.394Z,2.20
2022-08-04T12:39:10.645Z,2.20
2022-08-04T12:43:44.632Z,2.40
2022-08-04T12:47:43.323Z,2.50
2022-08-04T12:52:07.710Z,2.50
2022-08-04T12:56:04.992Z,2.47
2022-08-04T13:00:02.248Z,2.40
2022-08-04T13:04:15.582Z,2.53
2022-08-04T13:08:14.045Z,2.40
2022-08-04T13:12:19.447Z,2.33
2022-08-04T13:16:17.298Z,2.55
2022-08-04T13:20:14.786Z,2.47
2022-08-04T13:24:21.300Z,2.40
2022-08-04T13:28:26.298Z,2.42
2022-08-04T13:32:25.558Z,2.20
2022-08-04T13:36:26.537Z,2.42
2022-08-04T13:40:27.174Z,2.38
2022-08-04T13:44:33.441Z,2.45
2022-08-04T13:48:39.455Z,2.38
2022-08-04T13:52:36.569Z,2.20
2022-08-04T13:56:41.902Z,2.05
2022-08-04T14:00:54.273Z,2.08
2022-08-04T14:05:01.833Z,2.10
2022-08-04T14:09:14.956Z,2.00
2022-08-04T14:13:12.187Z,2.10
2022-08-04T14:17:20.289Z,2.70
2022-08-04T14:21:28.416Z,1.80
2022-08-04T14:25:30.409Z,1.92
2022-08-04T14:29:39.321Z,2.00
2022-08-04T14:34:02.156Z,2.20
2022-08-04T14:38:04.634Z,2.03
2022-08-04T14:42:01.648Z,1.92
2022-08-04T14:46:05.741Z,2.00
2022-08-04T14:50:02.779Z,2.00
2022-08-04T14:54:01.863Z,2.00
2022-08-04T14:58:33.799Z,2.17
2022-08-04T15:02:20.440Z,2.20
2022-08-04T15:06:21.807Z,2.00
2022-08-04T15:10:20.949Z,2.10
2022-08-04T15:14:36.367Z,3.70
2022-08-04T15:18:37.238Z,2.25
2022-08-04T15:22:35.729Z,2.33
2022-08-04T15:26:41.948Z,2.30
2022-08-04T15:30:40.975Z,2.10
2022-08-04T15:34:50.574Z,2.03
2022-08-04T15:39:04.566Z,4.85
2022-08-04T15:44:01.234Z,2.50
2022-08-04T15:48:03.984Z,2.42
2022-08-04T15:52:16.836Z,2.20
2022-08-04T15:56:30.064Z,2.22
2022-08-04T16:00:28.098Z,2.00
2022-08-04T16:04:25.652Z,2.13
2022-08-04T16:08:23.743Z,2.60
2022-08-04T16:12:55.466Z,2.20
2022-08-04T16:16:52.729Z,3.60
2022-08-04T16:20:52.150Z,2.38
2022-08-04T16:24:52.582Z,2.30
2022-08-04T16:28:49.786Z,2.08
2022-08-04T16:32:49.127Z,2.00
2022-08-04T16:36:59.450Z,2.38
2022-08-04T16:40:58.922Z,2.17
2022-08-04T16:45:14.603Z,2.03
2022-08-04T16:49:11.905Z,2.28
2022-08-04T16:53:39.963Z,2.10
2022-08-04T16:57:30.614Z,2.10
2022-08-04T17:01:33.632Z,2.10
2022-08-04T17:05:38.537Z,2.10
2022-08-04T17:09:37.435Z,2.45
2022-08-04T17:14:03.723Z,2.55
2022-08-04T17:18:19.919Z,2.50
2022-08-04T17:22:16.966Z,2.30
2022-08-04T17:26:24.097Z,2.30
2022-08-04T17:30:37.659Z,2.40
2022-08-04T17:35:01.571Z,2.20
2022-08-04T17:39:16.201Z,2.40
2022-08-04T17:44:03.505Z,2.40
2022-08-04T17:47:38.108Z,2.50
2022-08-04T17:52:04.633Z,2.60
2022-08-04T17:56:06.803Z,3.00
2022-08-04T18:00:05.382Z,2.63
2022-08-04T18:04:28.673Z,2.40
2022-08-04T18:08:39.048Z,2.40
2022-08-04T18:12:42.057Z,2.50
2022-08-04T18:16:45.980Z,2.20
2022-08-04T18:20:42.983Z,2.60
2022-08-04T18:24:55.465Z,2.33
2022-08-04T18:28:53.711Z,2.45
2022-08-04T18:33:24.771Z,2.60
2022-08-04T18:38:03.436Z,2.70
2022-08-04T18:42:00.664Z,2.67
2022-08-04T18:45:51.208Z,2.80
2022-08-04T18:50:59.523Z,3.20
2022-08-04T18:54:07.025Z,3.20
2022-08-04T18:58:07.378Z,3.30
2022-08-04T19:02:16.745Z,3.50
2022-08-04T19:06:15.898Z,4.00
2022-08-04T19:10:26.849Z,4.30
2022-08-04T19:14:24.372Z,4.85
2022-08-04T19:18:21.775Z,4.13
2022-08-04T19:22:36.115Z,4.72
2022-08-04T19:26:37.367Z,4.55
2022-08-04T19:30:34.550Z,4.07
2022-08-04T19:38:49.309Z,3.70
2022-08-04T19:42:46.605Z,3.90
2022-08-04T19:46:56.701Z,3.63
2022-08-04T19:51:20.627Z,4.10
2022-08-04T19:55:40.241Z,5.07
2022-08-04T19:59:37.548Z,5.70
2022-08-04T20:04:07.983Z,6.00
2022-08-04T20:08:02.674Z,4.68
2022-08-04T20:12:00.492Z,5.50
2022-08-04T20:15:59.065Z,3.90
2022-08-04T20:19:56.732Z,4.00
2022-08-04T20:23:54.115Z,3.70
2022-08-04T20:28:00.457Z,3.50
2022-08-04T20:32:05.534Z,3.88
2022-08-04T20:36:06.688Z,3.60
2022-08-04T20:40:05.161Z,3.30
2022-08-04T20:44:02.313Z,3.80
2022-08-04T20:47:59.438Z,3.58
2022-08-04T20:51:58.629Z,3.15
2022-08-04T20:55:56.340Z,3.40
2022-08-04T20:59:59.760Z,3.85
2022-08-04T21:04:27.380Z,3.72
2022-08-04T21:08:27.690Z,3.60
2022-08-04T21:12:28.196Z,3.38
2022-08-04T21:16:55.017Z,3.53
2022-08-04T21:20:43.351Z,3.63
2022-08-04T21:24:42.950Z,3.83
2022-08-04T21:28:47.133Z,3.50
2022-08-04T21:32:44.328Z,3.70
2022-08-04T21:36:43.880Z,3.40
2022-08-04T21:40:40.827Z,3.15
2022-08-04T21:44:37.852Z,4.00
2022-08-04T21:48:34.833Z,4.25
2022-08-04T21:52:33.351Z,3.72
2022-08-04T21:56:30.392Z,4.40
2022-08-04T22:00:29.168Z,4.07
2022-08-04T22:04:26.864Z,3.70
2022-08-04T22:08:23.888Z,3.65
2022-08-04T22:12:26.731Z,3.80
2022-08-04T22:16:27.026Z,4.13
2022-08-04T22:20:27.753Z,3.72
2022-08-04T22:24:25.387Z,3.78
2022-08-04T22:28:28.647Z,4.00
2022-08-04T22:32:25.939Z,4.05
2022-08-04T22:36:24.773Z,3.70
2022-08-04T22:40:22.206Z,4.13
2022-08-04T22:44:23.792Z,3.90
2022-08-04T22:48:21.077Z,3.80
2022-08-04T22:52:27.849Z,5.57
2022-08-04T22:56:38.619Z,4.40
2022-08-04T23:00:36.149Z,4.32
2022-08-04T23:04:37.318Z,4.10
2022-08-04T23:08:36.408Z,4.60
2022-08-04T23:12:33.628Z,4.35
2022-08-04T23:16:31.674Z,4.30
2022-08-04T23:20:32.740Z,4.40
2022-08-04T23:24:30.322Z,4.15
2022-08-04T23:28:28.815Z,4.68
2022-08-04T23:32:25.921Z,4.50
2022-08-04T23:36:30.108Z,4.75
2022-08-04T23:40:33.394Z,4.70
2022-08-04T23:44:31.526Z,4.70
2022-08-04T23:48:28.545Z,4.80
2022-08-04T23:52:29.691Z,5.10
2022-08-04T23:56:27.342Z,5.00
